createdAt,value
2022-07-29T00:01:42.360Z,11.00
2022-07-29T00:04:11.139Z,14.50
2022-07-29T00:06:39.442Z,14.40
2022-07-29T00:09:08.274Z,10.50
2022-07-29T00:11:36.694Z,10.10
2022-07-29T00:14:04.942Z,13.70
2022-07-29T00:16:33.320Z,12.60
2022-07-29T00:19:02.399Z,14.00
2022-07-29T00:21:30.903Z,11.40
2022-07-29T00:23:59.229Z,12.90
2022-07-29T00:26:28.884Z,12.50
2022-07-29T00:29:30.806Z,15.10
2022-07-29T00:31:45.790Z,13.20
2022-07-29T00:34:32.731Z,15.20
2022-07-29T00:37:01.068Z,14.40
2022-07-29T00:39:29.311Z,13.30
2022-07-29T00:41:57.570Z,13.00
2022-07-29T00:44:25.966Z,14.30
2022-07-29T00:46:54.346Z,10.80
2022-07-29T00:49:22.752Z,13.40
2022-07-29T00:51:51.482Z,14.40
2022-07-29T00:54:19.868Z,13.60
2022-07-29T00:56:48.252Z,16.70
2022-07-29T00:59:16.587Z,14.30
2022-07-29T01:01:44.879Z,13.20
2022-07-29T01:04:13.443Z,13.30
2022-07-29T01:06:43.986Z,14.40
2022-07-29T01:09:13.500Z,15.30
2022-07-29T01:11:42.156Z,11.00
2022-07-29T01:14:11.623Z,15.30
2022-07-29T01:16:50.334Z,13.00
2022-07-29T01:19:38.221Z,14.90
2022-07-29T01:22:25.262Z,11.90
2022-07-29T01:25:24.776Z,14.80
2022-07-29T01:28:31.422Z,17.40
2022-07-29T01:31:01.877Z,13.30
2022-07-29T01:33:50.558Z,13.80
2022-07-29T01:36:29.740Z,14.70
2022-07-29T01:39:15.299Z,17.10
2022-07-29T01:42:42.864Z,12.80
2022-07-29T01:45:18.615Z,14.60
2022-07-29T01:48:11.709Z,14.00
2022-07-29T01:50:53.375Z,16.60
2022-07-29T01:53:37.999Z,13.60
2022-07-29T01:56:10.095Z,15.20
2022-07-29T01:58:41.966Z,18.10
2022-07-29T02:01:12.748Z,15.40
2022-07-29T02:03:46.306Z,15.30
2022-07-29T02:06:20.125Z,16.10
2022-07-29T02:08:50.247Z,15.40
2022-07-29T02:11:19.003Z,14.10
2022-07-29T02:13:48.688Z,14.40
2022-07-29T02:16:20.389Z,13.90
2022-07-29T02:18:52.350Z,18.90
2022-07-29T02:21:25.931Z,16.70
2022-07-29T02:23:55.761Z,17.40
2022-07-29T02:26:27.023Z,14.60
2022-07-29T02:28:58.458Z,16.70
2022-07-29T02:31:31.490Z,13.80
2022-07-29T02:34:01.276Z,14.70
2022-07-29T02:36:31.160Z,19.50
2022-07-29T02:39:01.899Z,11.90
2022-07-29T02:41:46.472Z,17.70
2022-07-29T02:44:17.645Z,19.80
2022-07-29T02:46:54.648Z,10.90
2022-07-29T02:49:25.723Z,18.50
2022-07-29T02:52:08.121Z,17.10
2022-07-29T02:54:50.230Z,12.60
2022-07-29T02:57:31.511Z,14.00
2022-07-29T03:00:05.599Z,14.80
2022-07-29T03:02:39.514Z,13.30
2022-07-29T03:05:10.885Z,14.50
2022-07-29T03:07:42.013Z,13.80
2022-07-29T03:10:11.100Z,10.90
2022-07-29T03:12:43.092Z,11.30
2022-07-29T03:15:12.165Z,15.00
2022-07-29T03:17:40.976Z,14.20
2022-07-29T03:20:10.210Z,15.80
2022-07-29T03:22:49.678Z,14.20
2022-07-29T03:25:20.502Z,14.80
2022-07-29T03:27:49.630Z,16.40
2022-07-29T03:30:22.149Z,13.60
2022-07-29T03:32:52.713Z,13.50
2022-07-29T03:35:21.667Z,12.60
2022-07-29T03:37:50.330Z,12.30
2022-07-29T03:40:25.639Z,12.70
2022-07-29T03:42:56.695Z,14.20
2022-07-29T03:45:26.500Z,15.50
2022-07-29T03:48:00.946Z,10.40
2022-07-29T03:50:34.313Z,14.50
2022-07-29T03:53:03.763Z,12.00
2022-07-29T03:55:44.337Z,11.00
2022-07-29T03:58:14.722Z,15.40
2022-07-29T04:00:45.011Z,13.10
2022-07-29T04:03:14.377Z,12.80
2022-07-29T04:05:44.264Z,10.10
2022-07-29T04:08:12.622Z,11.10
2022-07-29T04:10:43.399Z,14.00
2022-07-29T04:13:11.660Z,12.90
2022-07-29T04:15:39.912Z,15.60
2022-07-29T04:18:08.255Z,12.50
2022-07-29T04:20:36.526Z,11.10
2022-07-29T04:23:04.742Z,14.20
2022-07-29T04:25:32.974Z,16.90
2022-07-29T04:28:01.261Z,14.30
2022-07-29T04:30:31.016Z,13.70
2022-07-29T04:33:01.990Z,15.60
2022-07-29T04:35:38.470Z,12.10
2022-07-29T04:38:15.729Z,11.00
2022-07-29T04:40:45.527Z,14.50
2022-07-29T04:43:16.782Z,15.30
2022-07-29T04:45:51.448Z,20.60
2022-07-29T04:48:22.923Z,24.10
2022-07-29T04:50:55.013Z,20.20
2022-07-29T04:53:23.471Z,14.00
2022-07-29T04:55:52.286Z,13.70
2022-07-29T04:58:20.643Z,11.30
2022-07-29T05:00:48.971Z,16.00
2022-07-29T05:03:17.183Z,14.80
2022-07-29T05:05:45.490Z,15.80
2022-07-29T05:08:13.928Z,14.50
2022-07-29T05:10:42.213Z,13.80
2022-07-29T05:13:10.534Z,11.70
2022-07-29T05:15:39.155Z,13.70
2022-07-29T05:18:07.350Z,10.00
2022-07-29T05:20:35.779Z,16.00
2022-07-29T05:23:04.751Z,11.50
2022-07-29T05:25:43.761Z,15.60
2022-07-29T05:28:13.476Z,16.10
2022-07-29T05:30:41.799Z,10.50
2022-07-29T05:33:36.228Z,12.70
2022-07-29T05:36:00.889Z,14.50
2022-07-29T05:38:29.953Z,9.50
2022-07-29T05:41:00.701Z,12.40
2022-07-29T05:43:29.974Z,11.50
2022-07-29T05:45:58.503Z,12.10
2022-07-29T05:48:27.034Z,8.60
2022-07-29T05:50:56.091Z,10.20
2022-07-29T05:53:24.457Z,12.20
2022-07-29T05:55:53.299Z,16.80
2022-07-29T05:58:21.796Z,12.10
2022-07-29T06:00:50.415Z,9.50
2022-07-29T06:03:18.751Z,12.30
2022-07-29T06:05:47.031Z,8.20
2022-07-29T06:08:15.353Z,9.90
2022-07-29T06:10:43.722Z,11.00
2022-07-29T06:13:12.617Z,11.30
2022-07-29T06:15:41.041Z,10.30
2022-07-29T06:18:11.216Z,8.60
2022-07-29T06:20:39.503Z,16.80
2022-07-29T06:23:07.819Z,9.30
2022-07-29T06:25:37.734Z,11.90
2022-07-29T06:28:06.094Z,10.70
2022-07-29T06:30:34.486Z,9.40
2022-07-29T06:33:03.845Z,11.20
2022-07-29T06:35:38.962Z,9.80
2022-07-29T06:38:31.714Z,15.10
2022-07-29T06:41:03.866Z,9.00
2022-07-29T06:43:36.275Z,10.40
2022-07-29T06:46:22.071Z,9.70
2022-07-29T06:48:51.191Z,11.30
2022-07-29T06:51:22.575Z,10.30
2022-07-29T06:54:01.653Z,10.40
2022-07-29T06:56:38.965Z,9.00
2022-07-29T06:59:10.185Z,7.20
2022-07-29T07:01:40.653Z,9.40
2022-07-29T07:04:10.700Z,12.40
2022-07-29T07:06:39.249Z,9.80
2022-07-29T07:09:07.721Z,11.80
2022-07-29T07:11:36.495Z,10.30
2022-07-29T07:14:04.826Z,10.70
2022-07-29T07:16:33.671Z,10.40
2022-07-29T07:19:02.559Z,21.50
2022-07-29T07:21:31.363Z,9.10
2022-07-29T07:24:00.903Z,11.50
2022-07-29T07:26:29.297Z,14.40
2022-07-29T07:28:57.832Z,9.90
2022-07-29T07:31:26.259Z,14.10
2022-07-29T07:33:54.823Z,7.30
2022-07-29T07:36:24.337Z,12.20
2022-07-29T07:38:52.616Z,9.00
2022-07-29T07:41:22.635Z,9.10
2022-07-29T07:43:50.907Z,10.80
2022-07-29T07:46:19.273Z,10.90
2022-07-29T07:48:47.641Z,13.10
2022-07-29T07:51:15.850Z,5.20
2022-07-29T07:53:45.796Z,11.30
2022-07-29T07:56:14.113Z,8.20
2022-07-29T07:58:42.360Z,10.10
2022-07-29T08:01:11.042Z,12.80
2022-07-29T08:03:40.024Z,10.00
2022-07-29T08:06:08.358Z,11.00
2022-07-29T08:08:36.685Z,8.50
2022-07-29T08:11:09.405Z,8.90
2022-07-29T08:13:39.539Z,8.10
2022-07-29T08:16:16.735Z,8.80
2022-07-29T08:18:46.844Z,8.20
2022-07-29T08:21:16.667Z,9.00
2022-07-29T08:24:00.691Z,9.30
2022-07-29T08:26:30.368Z,8.90
2022-07-29T08:28:58.595Z,9.80
2022-07-29T08:31:26.971Z,6.60
2022-07-29T08:33:57.385Z,7.30
2022-07-29T08:36:27.579Z,7.80
2022-07-29T08:38:56.308Z,8.90
2022-07-29T08:41:24.694Z,7.00
2022-07-29T08:43:53.499Z,6.20
2022-07-29T08:46:23.185Z,6.30
2022-07-29T08:48:51.764Z,6.90
2022-07-29T08:51:21.755Z,9.90
2022-07-29T08:53:51.462Z,8.60
2022-07-29T08:56:20.920Z,9.20
2022-07-29T08:58:52.359Z,7.60
2022-07-29T09:01:35.998Z,7.90
2022-07-29T09:04:12.305Z,9.20
2022-07-29T09:06:45.613Z,11.50
2022-07-29T09:09:14.901Z,6.30
2022-07-29T09:11:44.661Z,7.80
2022-07-29T09:14:14.694Z,10.10
2022-07-29T09:16:57.498Z,6.50
2022-07-29T09:19:27.720Z,7.50
2022-07-29T09:22:03.477Z,9.30
2022-07-29T09:24:35.587Z,10.30
2022-07-29T09:27:11.345Z,5.90
2022-07-29T09:29:40.382Z,8.20
2022-07-29T09:32:10.962Z,9.60
2022-07-29T09:34:39.583Z,10.10
2022-07-29T09:37:08.183Z,9.80
2022-07-29T09:39:45.323Z,8.30
2022-07-29T09:42:16.718Z,10.60
2022-07-29T09:44:49.303Z,5.40
2022-07-29T09:47:19.617Z,9.60
2022-07-29T09:50:01.583Z,6.90
2022-07-29T09:52:31.336Z,5.30
2022-07-29T09:55:17.819Z,7.30
2022-07-29T09:57:48.016Z,4.90
2022-07-29T10:00:19.960Z,9.20
2022-07-29T10:02:48.653Z,5.70
2022-07-29T10:05:26.674Z,4.90
2022-07-29T10:08:06.052Z,7.40
2022-07-29T10:10:36.867Z,5.00
2022-07-29T10:13:16.021Z,6.40
2022-07-29T10:15:47.411Z,4.20
2022-07-29T10:18:18.536Z,3.80
2022-07-29T10:20:47.017Z,7.20
2022-07-29T10:23:15.698Z,8.90
2022-07-29T10:25:46.512Z,6.50
2022-07-29T10:28:16.785Z,6.10
2022-07-29T10:30:46.861Z,7.20
2022-07-29T10:33:33.525Z,10.50
2022-07-29T10:36:27.159Z,7.10
2022-07-29T10:38:55.861Z,8.10
2022-07-29T10:41:56.173Z,8.30
2022-07-29T10:44:26.805Z,4.60
2022-07-29T10:46:56.003Z,5.00
2022-07-29T10:49:31.197Z,4.70
2022-07-29T10:52:07.020Z,4.80
2022-07-29T10:54:43.990Z,11.40
2022-07-29T10:57:52.295Z,8.10
2022-07-29T11:00:16.887Z,6.80
2022-07-29T11:02:50.172Z,9.60
2022-07-29T11:05:20.578Z,10.80
2022-07-29T11:08:19.945Z,7.80
2022-07-29T11:10:51.401Z,7.80
2022-07-29T11:13:58.295Z,7.80
2022-07-29T11:16:26.983Z,6.10
2022-07-29T11:19:13.629Z,5.50
2022-07-29T11:21:55.285Z,5.80
2022-07-29T11:24:30.015Z,9.00
2022-07-29T11:27:22.087Z,4.50
2022-07-29T11:29:58.685Z,6.50
2022-07-29T11:32:41.565Z,8.10
2022-07-29T11:35:38.075Z,5.50
2022-07-29T11:38:23.757Z,8.30
2022-07-29T11:41:23.319Z,8.10
2022-07-29T11:44:00.237Z,10.30
2022-07-29T11:46:53.765Z,6.60
2022-07-29T11:49:32.224Z,5.80
2022-07-29T11:52:05.561Z,8.30
2022-07-29T11:54:38.846Z,7.20
2022-07-29T11:57:29.531Z,6.00
2022-07-29T12:00:14.579Z,7.00
2022-07-29T12:02:48.559Z,4.50
2022-07-29T12:05:36.494Z,6.20
2022-07-29T12:08:22.782Z,8.00
2022-07-29T12:10:52.968Z,6.30
2022-07-29T12:13:22.789Z,6.20
2022-07-29T12:18:34.651Z,8.60
2022-07-29T12:21:07.539Z,9.10
2022-07-29T12:23:36.527Z,12.70
2022-07-29T12:26:07.334Z,9.80
2022-07-29T12:28:40.017Z,7.20
2022-07-29T12:31:15.180Z,8.00
2022-07-29T12:34:03.526Z,4.80
2022-07-29T12:36:31.994Z,4.70
2022-07-29T12:39:00.287Z,10.70
2022-07-29T12:41:30.266Z,6.60
2022-07-29T12:43:58.526Z,5.50
2022-07-29T12:46:26.938Z,4.80
2022-07-29T12:48:56.182Z,8.40
2022-07-29T12:51:39.341Z,9.00
2022-07-29T12:54:14.697Z,5.10
2022-07-29T12:56:45.438Z,10.50
2022-07-29T12:59:14.603Z,9.20
2022-07-29T13:01:43.526Z,7.80
2022-07-29T13:04:12.252Z,12.70
2022-07-29T13:06:50.868Z,10.40
2022-07-29T13:09:42.983Z,7.00
2022-07-29T13:12:14.106Z,10.10
2022-07-29T13:14:44.938Z,8.60
2022-07-29T13:17:14.648Z,9.20
2022-07-29T13:19:54.039Z,4.70
2022-07-29T13:22:25.849Z,4.20
2022-07-29T13:25:03.133Z,4.60
2022-07-29T13:27:34.458Z,5.20
2022-07-29T13:30:06.762Z,7.70
2022-07-29T13:32:37.472Z,8.60
2022-07-29T13:35:08.893Z,6.60
2022-07-29T13:37:39.707Z,17.60
2022-07-29T13:40:11.059Z,5.40
2022-07-29T13:42:40.222Z,6.10
2022-07-29T13:45:09.825Z,7.90
2022-07-29T13:47:38.935Z,7.80
2022-07-29T13:50:09.240Z,6.70
2022-07-29T13:52:38.713Z,11.30
2022-07-29T13:55:07.848Z,6.60
2022-07-29T13:57:36.701Z,9.60
2022-07-29T14:00:05.623Z,5.80
2022-07-29T14:02:36.893Z,6.10
2022-07-29T14:05:08.663Z,8.00
2022-07-29T14:07:39.845Z,4.90
2022-07-29T14:10:09.202Z,6.10
2022-07-29T14:12:37.672Z,10.50
2022-07-29T14:15:06.518Z,8.30
2022-07-29T14:17:34.995Z,11.90
2022-07-29T14:20:04.083Z,5.50
2022-07-29T14:22:32.428Z,7.30
2022-07-29T14:25:05.647Z,4.40
2022-07-29T14:27:44.842Z,5.00
2022-07-29T14:30:13.922Z,9.80
2022-07-29T14:32:42.276Z,9.10
2022-07-29T14:35:10.746Z,5.30
2022-07-29T14:37:40.239Z,5.00
2022-07-29T14:40:10.394Z,8.90
2022-07-29T14:42:39.760Z,7.00
2022-07-29T14:45:10.405Z,8.00
2022-07-29T14:47:40.503Z,7.50
2022-07-29T14:50:09.875Z,9.20
2022-07-29T14:52:38.313Z,4.30
2022-07-29T14:55:19.950Z,7.40
2022-07-29T14:57:51.058Z,10.00
2022-07-29T15:00:19.422Z,6.60
2022-07-29T15:03:04.224Z,9.40
2022-07-29T15:05:33.262Z,5.90
2022-07-29T15:08:01.618Z,5.20
2022-07-29T15:10:30.582Z,9.60
2022-07-29T15:12:58.902Z,8.40
2022-07-29T15:15:27.342Z,6.50
2022-07-29T15:17:55.762Z,5.70
2022-07-29T15:20:26.380Z,8.30
2022-07-29T15:22:56.619Z,5.40
2022-07-29T15:25:27.943Z,7.20
2022-07-29T15:28:01.174Z,8.80
2022-07-29T15:30:34.471Z,7.60
2022-07-29T15:33:04.490Z,9.00
2022-07-29T15:35:33.642Z,4.90
2022-07-29T15:38:09.319Z,8.10
2022-07-29T15:40:42.306Z,7.60
2022-07-29T15:43:10.674Z,9.10
2022-07-29T15:45:40.978Z,6.90
2022-07-29T15:48:10.343Z,8.50
2022-07-29T15:50:47.057Z,6.30
2022-07-29T15:53:15.534Z,8.20
2022-07-29T15:55:44.533Z,7.80
2022-07-29T15:58:12.928Z,11.00
2022-07-29T16:00:41.345Z,12.40
2022-07-29T16:03:09.795Z,8.40
2022-07-29T16:05:38.883Z,9.20
2022-07-29T16:08:07.273Z,15.80
2022-07-29T16:10:35.633Z,10.80
2022-07-29T16:13:04.066Z,12.50
2022-07-29T16:15:32.588Z,11.80
2022-07-29T16:18:01.242Z,10.10
2022-07-29T16:20:29.553Z,6.60
2022-07-29T16:22:57.860Z,8.10
2022-07-29T16:25:43.900Z,11.40
2022-07-29T16:28:14.333Z,12.20
2022-07-29T16:30:42.628Z,12.00
2022-07-29T16:33:10.974Z,5.70
2022-07-29T16:35:40.550Z,7.70
2022-07-29T16:38:08.884Z,20.70
2022-07-29T16:40:37.106Z,17.70
2022-07-29T16:43:05.425Z,16.80
2022-07-29T16:45:46.059Z,13.90
2022-07-29T16:48:15.538Z,7.90
2022-07-29T16:50:46.558Z,6.50
2022-07-29T16:53:14.937Z,5.00
2022-07-29T16:55:43.202Z,8.50
2022-07-29T16:58:11.955Z,6.80
2022-07-29T17:00:40.331Z,9.30
2022-07-29T17:03:08.695Z,10.30
2022-07-29T17:05:52.265Z,12.40
2022-07-29T17:08:23.035Z,18.00
2022-07-29T17:10:51.468Z,17.10
2022-07-29T17:13:19.889Z,13.70
2022-07-29T17:15:48.340Z,7.70
2022-07-29T17:18:16.857Z,14.70
2022-07-29T17:20:45.718Z,9.70
2022-07-29T17:23:13.946Z,13.30
2022-07-29T17:25:42.241Z,13.60
2022-07-29T17:28:10.462Z,13.20
2022-07-29T17:30:38.710Z,9.50
2022-07-29T17:33:07.034Z,15.50
2022-07-29T17:35:54.297Z,15.50
2022-07-29T17:38:22.629Z,9.60
2022-07-29T17:40:50.894Z,10.30
2022-07-29T17:43:19.153Z,5.10
2022-07-29T17:45:49.994Z,5.00
2022-07-29T17:48:20.185Z,6.30
2022-07-29T17:50:49.282Z,7.90
2022-07-29T17:53:17.807Z,4.20
2022-07-29T17:55:48.804Z,6.20
2022-07-29T17:58:17.461Z,4.00
2022-07-29T18:00:45.923Z,3.10
2022-07-29T18:03:15.251Z,6.10
2022-07-29T18:05:44.444Z,3.50
2022-07-29T18:08:13.100Z,7.80
2022-07-29T18:10:41.562Z,4.00
2022-07-29T18:13:12.795Z,30.70
2022-07-29T18:15:41.641Z,14.10
2022-07-29T18:18:10.036Z,7.00
2022-07-29T18:20:38.552Z,8.50
2022-07-29T18:23:06.911Z,18.20
2022-07-29T18:25:35.310Z,17.20
2022-07-29T18:28:04.323Z,15.90
2022-07-29T18:30:34.627Z,13.10
2022-07-29T18:33:21.747Z,15.90
2022-07-29T18:36:04.204Z,20.40
2022-07-29T18:38:41.432Z,15.20
2022-07-29T18:41:09.716Z,11.00
2022-07-29T18:43:38.006Z,8.20
2022-07-29T18:46:06.952Z,5.30
2022-07-29T18:48:35.493Z,7.20
2022-07-29T18:51:09.502Z,7.50
2022-07-29T18:53:38.190Z,6.00
2022-07-29T18:56:06.520Z,9.00
2022-07-29T18:58:37.066Z,5.80
2022-07-29T19:01:06.145Z,5.10
2022-07-29T19:03:35.062Z,7.70
2022-07-29T19:06:03.527Z,10.10
2022-07-29T19:08:32.806Z,5.80
2022-07-29T19:11:01.075Z,6.20
2022-07-29T19:13:29.406Z,6.80
2022-07-29T19:15:57.898Z,7.20
2022-07-29T19:18:26.152Z,6.40
2022-07-29T19:20:54.497Z,6.60
2022-07-29T19:23:23.205Z,7.80
2022-07-29T19:25:53.490Z,6.80
2022-07-29T19:28:22.889Z,8.30
2022-07-29T19:30:52.005Z,8.70
2022-07-29T19:33:21.116Z,7.60
2022-07-29T19:35:54.329Z,9.40
2022-07-29T19:38:23.873Z,12.00
2022-07-29T19:40:53.398Z,17.00
2022-07-29T19:43:51.113Z,9.10
2022-07-29T19:46:10.002Z,6.60
2022-07-29T19:48:38.392Z,7.30
2022-07-29T19:51:06.801Z,9.00
2022-07-29T19:53:35.132Z,9.50
2022-07-29T19:56:04.057Z,10.80
2022-07-29T19:58:32.605Z,11.60
2022-07-29T20:01:01.089Z,6.60
2022-07-29T20:03:29.696Z,8.10
2022-07-29T20:05:58.395Z,9.90
2022-07-29T20:08:26.735Z,7.10
2022-07-29T20:10:56.069Z,10.00
2022-07-29T20:13:25.350Z,8.50
2022-07-29T20:15:53.858Z,10.10
2022-07-29T20:18:22.125Z,10.90
2022-07-29T20:20:50.387Z,11.10
2022-07-29T20:23:19.503Z,9.20
2022-07-29T20:25:48.498Z,11.60
2022-07-29T20:28:16.803Z,6.80
2022-07-29T20:30:45.217Z,6.90
2022-07-29T20:33:16.005Z,12.30
2022-07-29T20:35:44.409Z,10.90
2022-07-29T20:38:17.790Z,12.60
2022-07-29T20:40:46.699Z,10.30
2022-07-29T20:43:14.975Z,14.30
2022-07-29T20:45:43.231Z,11.00
2022-07-29T20:48:13.521Z,11.70
2022-07-29T20:50:42.948Z,11.00
2022-07-29T20:53:11.925Z,10.00
2022-07-29T20:55:40.299Z,10.80
2022-07-29T20:58:08.828Z,7.40
2022-07-29T21:00:37.488Z,8.00
2022-07-29T21:03:05.963Z,6.00
2022-07-29T21:05:34.426Z,6.60
2022-07-29T21:08:02.850Z,8.60
2022-07-29T21:10:31.329Z,9.90
2022-07-29T21:12:59.641Z,9.00
2022-07-29T21:15:29.338Z,8.40
2022-07-29T21:18:06.255Z,11.70
2022-07-29T21:20:34.576Z,7.50
2022-07-29T21:23:02.821Z,8.80
2022-07-29T21:25:31.027Z,8.20
2022-07-29T21:28:18.170Z,10.10
2022-07-29T21:30:46.422Z,9.20
2022-07-29T21:33:14.843Z,10.60
2022-07-29T21:35:59.064Z,9.30
2022-07-29T21:38:31.783Z,7.10
2022-07-29T21:41:00.403Z,11.30
2022-07-29T21:43:29.039Z,11.40
2022-07-29T21:45:58.516Z,15.90
2022-07-29T21:48:28.544Z,12.90
2022-07-29T21:50:57.314Z,12.30
2022-07-29T21:53:27.082Z,12.60
2022-07-29T21:55:55.855Z,17.30
2022-07-29T21:58:24.855Z,15.10
2022-07-29T22:00:54.015Z,13.30
2022-07-29T22:03:22.416Z,10.80
2022-07-29T22:05:50.600Z,15.70
2022-07-29T22:08:21.677Z,14.70
2022-07-29T22:10:49.883Z,12.40
2022-07-29T22:13:18.169Z,13.50
2022-07-29T22:15:47.333Z,15.00
2022-07-29T22:18:20.523Z,13.70
2022-07-29T22:20:50.412Z,13.70
2022-07-29T22:23:18.815Z,14.50
2022-07-29T22:25:47.066Z,16.00
2022-07-29T22:28:15.351Z,15.50
2022-07-29T22:30:43.596Z,13.00
2022-07-29T22:33:16.976Z,17.50
2022-07-29T22:38:18.596Z,13.10
2022-07-29T22:40:48.570Z,13.60
2022-07-29T22:43:17.306Z,14.90
2022-07-29T22:45:45.664Z,15.70
2022-07-29T22:48:14.021Z,14.70
2022-07-29T22:50:42.623Z,15.30
2022-07-29T22:53:10.929Z,14.70
2022-07-29T22:55:39.270Z,16.40
2022-07-29T22:58:07.541Z,17.00
2022-07-29T23:00:35.946Z,15.40
2022-07-29T23:03:04.514Z,18.30
2022-07-29T23:05:33.581Z,15.30
2022-07-29T23:08:01.864Z,17.40
2022-07-29T23:10:30.262Z,18.30
2022-07-29T23:12:58.646Z,18.40
2022-07-29T23:15:26.900Z,19.50
2022-07-29T23:17:55.269Z,14.70
2022-07-29T23:20:23.625Z,16.70
2022-07-29T23:22:51.882Z,17.20
2022-07-29T23:25:20.294Z,15.30
2022-07-29T23:27:48.578Z,17.70
2022-07-29T23:30:16.860Z,17.20
2022-07-29T23:32:45.169Z,16.10
2022-07-29T23:35:13.438Z,19.60
2022-07-29T23:37:41.711Z,16.90
2022-07-29T23:40:14.274Z,18.80
2022-07-29T23:42:43.260Z,15.90
2022-07-29T23:45:13.153Z,16.00
2022-07-29T23:47:42.985Z,18.70
2022-07-29T23:50:12.691Z,17.90
2022-07-29T23:52:42.154Z,14.40
2022-07-29T23:55:37.131Z,17.50
2022-07-29T23:58:00.759Z,19.00
